Time;durP1;ratioP1;P1;durP2;ratioP2;P2;SDS_P1;SDS_P2;PMS_P1;PMS_P2;Temp;Humidity;BMP_temperature;BMP_pressure;BME280_temperature;BME280_humidity;BME280_pressure;Samples;Min_cycle;Max_cycle;Signal;HPM_P1;HPM_P2
2023/05/31 00:02:13;;;;;;;75.73;2.30;;;20.10;23.30;;;;;;5074415;28;20206;-76
2023/05/31 00:04:38;;;;;;;74.70;2.23;;;20.20;22.40;;;;;;5073657;28;20453;-78
2023/05/31 00:07:05;;;;;;;74.50;1.90;;;20.20;21.70;;;;;;5074195;28;20452;-76
2023/05/31 00:09:31;;;;;;;74.77;2.30;;;20.20;23.20;;;;;;5074400;28;20267;-76
2023/05/31 00:11:57;;;;;;;75.43;2.47;;;20.20;22.70;;;;;;5074103;28;20543;-76
2023/05/31 00:14:22;;;;;;;74.63;2.13;;;20.30;22.20;;;;;;5073512;28;20266;-76
2023/05/31 00:16:48;;;;;;;74.97;2.30;;;20.20;22.80;;;;;;5074017;28;20903;-76
2023/05/31 00:19:13;;;;;;;74.67;2.07;;;20.10;24.50;;;;;;5074313;28;20695;-76
2023/05/31 00:21:39;;;;;;;75.47;2.67;;;20.10;24.60;;;;;;5073865;28;20193;-76
2023/05/31 00:24:05;;;;;;;75.17;2.40;;;20.10;23.10;;;;;;5073892;28;20172;-75
2023/05/31 00:26:31;;;;;;;75.20;2.30;;;20.10;24.20;;;;;;5073918;28;20210;-76
2023/05/31 00:28:56;;;;;;;74.80;2.07;;;19.70;22.60;;;;;;5073825;28;20452;-76
2023/05/31 00:31:22;;;;;;;74.57;1.90;;;19.80;24.10;;;;;;5073781;28;20173;-77
2023/05/31 00:33:47;;;;;;;74.87;2.20;;;20.00;23.80;;;;;;5073144;28;20182;-76
2023/05/31 00:36:13;;;;;;;74.80;2.10;;;16.30;20.50;;;;;;5074013;28;20268;-75
2023/05/31 00:38:39;;;;;;;74.90;2.20;;;19.90;24.10;;;;;;5073708;28;20702;-76
2023/05/31 00:41:08;;;;;;;76.47;2.53;;;19.70;22.90;;;;;;5073681;28;20176;-77
2023/05/31 00:43:33;;;;;;;74.50;1.93;;;19.40;20.70;;;;;;5073031;28;20186;-75
2023/05/31 00:45:59;;;;;;;74.97;2.30;;;19.10;21.00;;;;;;5072640;28;20464;-76
2023/05/31 00:48:25;;;;;;;74.73;2.00;;;19.40;23.70;;;;;;5073549;28;20208;-76
2023/05/31 00:50:50;;;;;;;75.37;2.50;;;19.50;20.20;;;;;;5073450;28;20304;-78
2023/05/31 00:53:18;;;;;;;81.10;2.40;;;19.80;20.80;;;;;;5072904;28;20261;-76
2023/05/31 00:55:44;;;;;;;75.00;2.23;;;19.80;22.80;;;;;;5073361;28;20733;-76
2023/05/31 00:58:10;;;;;;;75.30;2.50;;;19.60;23.20;;;;;;5073366;28;20417;-76
2023/05/31 01:00:36;;;;;;;74.90;2.20;;;19.80;23.30;;;;;;5073276;28;20183;-76
2023/05/31 01:03:02;;;;;;;75.37;2.40;;;19.70;19.90;;;;;;5072733;28;20898;-76
2023/05/31 01:05:29;;;;;;;75.17;2.30;;;19.50;20.90;;;;;;5073143;28;20523;-76
2023/05/31 01:07:55;;;;;;;75.27;2.53;;;19.70;23.20;;;;;;5073049;28;20451;-75
2023/05/31 01:10:21;;;;;;;74.80;2.10;;;19.50;19.80;;;;;;5073266;28;20459;-76
2023/05/31 01:13:09;;;;;;;75.27;2.30;;;19.00;20.20;;;;;;5072957;28;20410;-77
2023/05/31 01:15:44;;;;;;;75.17;2.50;;;19.20;23.00;;;;;;5073122;28;20188;-78
2023/05/31 01:18:26;;;;;;;75.20;2.60;;;19.50;24.90;;;;;;5073108;28;20455;-76
2023/05/31 01:20:57;;;;;;;74.90;2.30;;;19.60;22.80;;;;;;5072705;28;20405;-76
2023/05/31 01:23:44;;;;;;;75.60;2.97;;;19.70;23.10;;;;;;5072281;28;20466;-76
2023/05/31 01:26:35;;;;;;;76.57;2.67;;;19.50;20.40;;;;;;5072828;28;20425;-76
2023/05/31 01:29:04;;;;;;;75.50;2.30;;;19.30;19.60;;;;;;5072895;28;20517;-76
2023/05/31 01:31:33;;;;;;;75.07;2.30;;;19.30;22.40;;;;;;5072471;28;20625;-76
2023/05/31 01:33:59;;;;;;;75.00;2.33;;;19.20;22.30;;;;;;5072245;28;20446;-75
2023/05/31 01:36:25;;;;;;;74.60;2.00;;;19.50;23.40;;;;;;5072587;28;20428;-76
2023/05/31 01:38:51;;;;;;;75.37;2.20;;;19.60;22.40;;;;;;5072439;28;20545;-76
2023/05/31 01:41:18;;;;;;;74.93;2.10;;;19.30;20.30;;;;;;5072650;28;20173;-76
2023/05/31 01:43:46;;;;;;;74.97;2.10;;;19.30;23.90;;;;;;5071925;28;20179;-76
2023/05/31 01:46:14;;;;;;;74.90;2.20;;;19.40;23.10;;;;;;5071908;28;20453;-76
2023/05/31 01:48:41;;;;;;;74.70;1.97;;;19.40;22.20;;;;;;5072384;28;20462;-78
2023/05/31 01:51:09;;;;;;;75.60;2.57;;;19.40;23.70;;;;;;5073237;28;20416;-76
2023/05/31 01:53:34;;;;;;;75.33;2.60;;;19.60;21.90;;;;;;5071617;28;20406;-76
2023/05/31 01:56:02;;;;;;;74.77;1.90;;;19.50;23.30;;;;;;5070219;28;20443;-78
2023/05/31 01:58:30;;;;;;;75.07;2.10;;;19.50;23.40;;;;;;5072160;28;20229;-76
2023/05/31 02:00:56;;;;;;;75.50;2.63;;;19.40;22.90;;;;;;5072189;28;20407;-76
2023/05/31 02:03:22;;;;;;;75.30;2.43;;;19.20;23.20;;;;;;5071636;28;20509;-76
2023/05/31 02:06:00;;;;;;;74.90;2.10;;;19.20;24.20;;;;;;5071969;28;20427;-76
2023/05/31 02:08:27;;;;;;;75.43;2.10;;;19.50;22.40;;;;;;5072066;28;20197;-76
2023/05/31 02:10:53;;;;;;;75.30;2.33;;;19.40;22.70;;;;;;5072008;28;20479;-76
2023/05/31 02:13:20;;;;;;;75.07;2.20;;;19.60;23.10;;;;;;5071342;28;20411;-76
2023/05/31 02:15:46;;;;;;;75.80;1.90;;;19.70;20.70;;;;;;5071694;28;20427;-76
2023/05/31 02:18:12;;;;;;;75.17;2.30;;;19.60;22.50;;;;;;5071912;28;20413;-76
2023/05/31 02:20:38;;;;;;;75.17;2.27;;;19.60;21.30;;;;;;5071909;28;20410;-76
2023/05/31 02:23:04;;;;;;;75.90;2.27;;;19.50;23.90;;;;;;5071227;28;20221;-76
2023/05/31 02:25:30;;;;;;;75.47;2.40;;;19.40;22.20;;;;;;5071849;28;20427;-75
2023/05/31 02:27:57;;;;;;;75.30;2.13;;;19.50;21.00;;;;;;5070207;28;20546;-76
2023/05/31 02:30:25;;;;;;;75.13;2.03;;;19.40;21.20;;;;;;5070530;28;20172;-76
2023/05/31 02:32:51;;;;;;;74.97;1.97;;;19.00;21.30;;;;;;5071053;28;20854;-78
2023/05/31 02:35:17;;;;;;;75.17;2.10;;;19.00;23.50;;;;;;5071599;28;20431;-76
2023/05/31 02:37:45;;;;;;;75.57;2.20;;;19.10;22.40;;;;;;5071527;28;20207;-75
2023/05/31 02:40:10;;;;;;;74.97;1.90;;;18.00;21.50;;;;;;5071689;28;20173;-76
2023/05/31 02:42:38;;;;;;;75.27;2.30;;;18.20;23.30;;;;;;5070849;28;20430;-76
2023/05/31 02:45:05;;;;;;;76.73;2.50;;;18.50;22.60;;;;;;5071684;28;20452;-76
2023/05/31 02:47:31;;;;;;;74.90;1.80;;;18.80;23.70;;;;;;5071351;28;20445;-75
2023/05/31 02:49:56;;;;;;;75.93;2.50;;;18.90;23.40;;;;;;5071321;28;20426;-76
2023/05/31 02:52:23;;;;;;;75.03;1.90;;;19.20;21.80;;;;;;5071380;28;20167;-76
2023/05/31 02:54:49;;;;;;;75.77;2.40;;;19.20;22.70;;;;;;5070868;28;20280;-76
2023/05/31 02:57:15;;;;;;;75.47;2.00;;;19.00;23.40;;;;;;5071482;28;20411;-75
2023/05/31 02:59:42;;;;;;;75.37;2.13;;;18.90;24.10;;;;;;5071429;28;20412;-75
2023/05/31 03:02:08;;;;;;;75.37;2.10;;;18.50;22.80;;;;;;5071606;28;20168;-76
2023/05/31 03:04:33;;;;;;;76.00;2.50;;;18.70;25.10;;;;;;5070762;28;20995;-76
2023/05/31 03:06:59;;;;;;;75.37;2.17;;;18.70;24.40;;;;;;5071141;28;20250;-76
2023/05/31 03:09:25;;;;;;;75.57;2.20;;;18.70;24.50;;;;;;5074993;28;20239;-76
2023/05/31 03:11:50;;;;;;;75.27;2.07;;;18.70;22.80;;;;;;5075445;28;20209;-76
2023/05/31 03:14:16;;;;;;;76.20;2.53;;;18.60;22.90;;;;;;5074738;28;20706;-77
2023/05/31 03:16:43;;;;;;;75.40;2.10;;;18.50;23.40;;;;;;5075432;28;20162;-76
2023/05/31 03:19:08;;;;;;;75.77;2.30;;;18.70;21.40;;;;;;5075655;28;20557;-75
2023/05/31 03:21:35;;;;;;;75.57;2.27;;;18.70;24.80;;;;;;5075317;28;20410;-77
2023/05/31 03:24:01;;;;;;;77.40;2.20;;;18.70;23.90;;;;;;5074223;28;20258;-76
2023/05/31 03:26:27;;;;;;;75.27;2.07;;;18.80;23.30;;;;;;5075286;28;20539;-76
2023/05/31 03:28:52;;;;;;;75.50;2.03;;;18.80;22.00;;;;;;5074906;28;20190;-77
2023/05/31 03:31:18;;;;;;;75.47;2.07;;;18.80;22.60;;;;;;5074935;28;20205;-75
2023/05/31 03:33:44;;;;;;;75.47;2.27;;;18.90;21.40;;;;;;5074382;28;20401;-76
2023/05/31 03:36:10;;;;;;;75.63;2.10;;;18.80;24.40;;;;;;5075003;28;20952;-76
2023/05/31 03:38:35;;;;;;;75.97;2.20;;;18.70;23.70;;;;;;5074699;28;20172;-76
2023/05/31 03:41:01;;;;;;;75.60;2.13;;;18.80;22.60;;;;;;5074784;28;20240;-76
2023/05/31 03:43:27;;;;;;;75.97;2.30;;;18.80;24.20;;;;;;5074291;28;20175;-78
2023/05/31 03:45:52;;;;;;;75.40;2.00;;;18.60;23.00;;;;;;5075008;28;20608;-75
2023/05/31 03:48:18;;;;;;;75.93;2.37;;;18.60;22.70;;;;;;5074691;28;20560;-76
2023/05/31 03:50:44;;;;;;;78.20;2.30;;;18.80;22.90;;;;;;5074468;28;20530;-76
2023/05/31 03:53:09;;;;;;;75.43;2.00;;;18.70;22.20;;;;;;5073864;28;20217;-76
2023/05/31 03:55:36;;;;;;;75.57;2.10;;;18.80;24.40;;;;;;5074511;28;20795;-77
2023/05/31 03:58:02;;;;;;;75.50;2.10;;;18.80;22.60;;;;;;5074272;28;20581;-75
2023/05/31 04:00:28;;;;;;;75.77;2.30;;;18.80;23.20;;;;;;5074575;28;20428;-75
2023/05/31 04:02:54;;;;;;;75.50;2.03;;;18.80;22.10;;;;;;5073934;28;20499;-76
2023/05/31 04:05:20;;;;;;;76.43;2.27;;;18.80;22.60;;;;;;5073263;28;21036;-76
2023/05/31 04:07:45;;;;;;;75.37;2.10;;;18.50;21.00;;;;;;5074245;28;20563;-78
2023/05/31 04:10:11;;;;;;;76.90;2.80;;;18.50;23.00;;;;;;5074085;28;20254;-76
2023/05/31 04:12:36;;;;;;;76.13;2.40;;;18.70;21.90;;;;;;5073830;28;20163;-76
2023/05/31 04:15:02;;;;;;;75.50;2.10;;;18.50;20.10;;;;;;5073959;28;20220;-76
2023/05/31 04:17:28;;;;;;;75.67;2.10;;;18.60;22.80;;;;;;5072953;28;20604;-76
2023/05/31 04:19:53;;;;;;;75.40;2.00;;;18.70;23.20;;;;;;5071660;28;20276;-76
2023/05/31 04:22:20;;;;;;;75.53;2.27;;;18.70;23.50;;;;;;5073853;28;20176;-76
2023/05/31 04:24:46;;;;;;;75.53;2.20;;;18.80;22.90;;;;;;5073264;28;20623;-77
2023/05/31 04:27:18;;;;;;;75.53;2.00;;;19.00;21.80;;;;;;5074078;28;20483;-76
2023/05/31 04:29:45;;;;;;;75.47;2.10;;;20.70;23.40;;;;;;5073865;28;20168;-77
2023/05/31 04:32:14;;;;;;;75.47;2.13;;;18.80;21.30;;;;;;5073914;28;20948;-76
2023/05/31 04:34:40;;;;;;;75.67;2.40;;;18.50;22.20;;;;;;5072882;28;20853;-76
2023/05/31 04:37:06;;;;;;;75.30;1.90;;;18.60;22.50;;;;;;5073745;28;20461;-76
2023/05/31 04:39:32;;;;;;;75.50;2.23;;;18.80;22.40;;;;;;5073804;28;20553;-77
2023/05/31 04:41:59;;;;;;;75.57;2.13;;;18.80;22.50;;;;;;5073726;28;20493;-78
2023/05/31 04:44:26;;;;;;;75.50;2.20;;;18.80;21.60;;;;;;5072765;28;20250;-76
2023/05/31 04:46:51;;;;;;;75.30;2.10;;;18.80;22.60;;;;;;5073841;28;20900;-76
2023/05/31 04:49:18;;;;;;;77.07;2.90;;;18.90;20.90;;;;;;5073609;28;20452;-76
2023/05/31 04:51:44;;;;;;;75.50;2.10;;;19.00;21.30;;;;;;5073491;28;20176;-76
2023/05/31 04:54:09;;;;;;;75.30;2.00;;;19.10;21.50;;;;;;5072682;28;20523;-76
2023/05/31 04:56:35;;;;;;;76.43;3.00;;;18.90;20.50;;;;;;5073462;28;20555;-76
2023/05/31 04:59:01;;;;;;;75.27;2.20;;;19.00;22.20;;;;;;5073373;28;20184;-76
2023/05/31 05:01:27;;;;;;;75.30;2.03;;;19.00;23.60;;;;;;5073466;28;20562;-76
2023/05/31 05:03:53;;;;;;;76.70;2.73;;;19.00;22.00;;;;;;5072629;28;20184;-76
2023/05/31 05:06:18;;;;;;;75.30;2.03;;;19.00;23.20;;;;;;5073016;28;20430;-75
2023/05/31 05:08:45;;;;;;;76.07;2.63;;;19.10;23.90;;;;;;5073224;28;20187;-76
2023/05/31 05:11:12;;;;;;;76.20;2.57;;;18.90;22.80;;;;;;5073232;28;20169;-76
2023/05/31 05:13:37;;;;;;;75.37;2.00;;;19.10;21.10;;;;;;5072510;28;20488;-76
2023/05/31 05:16:04;;;;;;;75.20;1.90;;;19.20;23.30;;;;;;5073652;28;20856;-78
2023/05/31 05:18:30;;;;;;;75.33;2.03;;;19.10;22.50;;;;;;5073616;28;20201;-77
2023/05/31 05:20:56;;;;;;;77.50;2.23;;;19.20;21.60;;;;;;5072920;28;20402;-77
2023/05/31 05:23:23;;;;;;;75.30;2.13;;;19.40;21.20;;;;;;5073244;28;20405;-77
2023/05/31 05:25:48;;;;;;;75.37;2.23;;;19.50;21.80;;;;;;5073667;28;20431;-78
2023/05/31 05:28:14;;;;;;;75.90;2.67;;;19.40;22.40;;;;;;5073160;28;20955;-77
2023/05/31 05:30:40;;;;;;;75.63;2.27;;;19.60;20.80;;;;;;5072484;28;20179;-77
2023/05/31 05:33:06;;;;;;;75.33;2.03;;;19.50;21.80;;;;;;5072283;28;20418;-76
2023/05/31 05:35:32;;;;;;;75.57;2.17;;;19.30;23.00;;;;;;5073497;28;20426;-76
2023/05/31 05:37:59;;;;;;;75.67;2.40;;;19.30;22.10;;;;;;5072817;28;20182;-77
2023/05/31 05:40:26;;;;;;;75.30;2.00;;;19.40;22.50;;;;;;5073013;28;20416;-76
2023/05/31 05:42:53;;;;;;;75.77;2.63;;;19.50;21.00;;;;;;5072217;28;20436;-76
2023/05/31 05:45:19;;;;;;;75.40;2.13;;;19.70;21.30;;;;;;5074705;28;20458;-76
2023/05/31 05:47:45;;;;;;;75.37;2.10;;;19.80;23.20;;;;;;5072395;28;20445;-77
2023/05/31 05:50:12;;;;;;;76.93;2.40;;;19.80;23.90;;;;;;5072841;28;20332;-76
2023/05/31 05:52:38;;;;;;;75.67;2.50;;;19.90;21.10;;;;;;5072016;28;20177;-77
2023/05/31 05:55:04;;;;;;;75.17;2.00;;;19.80;20.70;;;;;;5072411;28;20455;-77
2023/05/31 05:57:30;;;;;;;75.57;2.40;;;19.60;21.60;;;;;;5072363;28;20459;-79
2023/05/31 05:59:59;;;;;;;75.30;2.13;;;19.90;21.20;;;;;;5072249;28;20175;-76
2023/05/31 06:02:24;;;;;;;75.20;2.20;;;19.90;22.10;;;;;;5072399;28;20405;-76
2023/05/31 06:04:51;;;;;;;77.97;3.47;;;20.00;22.40;;;;;;5071944;28;20491;-78
2023/05/31 06:07:17;;;;;;;75.40;2.20;;;19.80;20.50;;;;;;5073527;28;20257;-77
2023/05/31 06:09:42;;;;;;;75.20;2.07;;;19.90;21.50;;;;;;5073257;28;20539;-78
2023/05/31 06:12:09;;;;;;;75.20;2.00;;;20.10;21.90;;;;;;5078810;28;20413;-76
2023/05/31 06:14:35;;;;;;;75.20;2.10;;;20.20;22.50;;;;;;5072627;28;20269;-77
2023/05/31 06:17:00;;;;;;;75.63;2.40;;;20.20;22.80;;;;;;5072047;28;20505;-76
2023/05/31 06:19:26;;;;;;;75.67;2.40;;;20.00;21.60;;;;;;5071058;28;20658;-76
2023/05/31 06:21:53;;;;;;;75.20;2.07;;;20.20;21.30;;;;;;5071950;28;20676;-77
2023/05/31 06:24:19;;;;;;;75.20;2.03;;;20.30;20.60;;;;;;5071272;28;20205;-77
2023/05/31 06:26:45;;;;;;;76.20;2.63;;;20.40;21.30;;;;;;5071723;28;20432;-78
2023/05/31 06:29:10;;;;;;;75.83;2.37;;;20.50;20.50;;;;;;5071800;28;20251;-76
2023/05/31 06:31:38;;;;;;;75.10;1.90;;;20.60;22.00;;;;;;5071672;28;20234;-76
2023/05/31 06:34:04;;;;;;;76.40;2.43;;;20.50;22.40;;;;;;5071061;28;20194;-76
2023/05/31 06:36:31;;;;;;;75.33;2.33;;;20.60;21.40;;;;;;5071915;28;20545;-76
2023/05/31 06:38:57;;;;;;;75.27;2.10;;;20.60;21.30;;;;;;5071686;28;20513;-76
2023/05/31 06:41:22;;;;;;;75.03;1.80;;;20.80;21.80;;;;;;5071474;28;20491;-76
2023/05/31 06:43:48;;;;;;;78.23;2.37;;;20.90;21.30;;;;;;5070383;28;20175;-76
2023/05/31 06:46:13;;;;;;;76.90;2.67;;;20.80;20.80;;;;;;5069986;28;20619;-76
2023/05/31 06:48:39;;;;;;;75.50;2.30;;;20.90;21.20;;;;;;5070220;28;20211;-78
2023/05/31 06:51:05;;;;;;;75.67;2.50;;;20.80;21.80;;;;;;5071195;28;20168;-76
2023/05/31 06:53:30;;;;;;;75.27;2.20;;;21.10;21.30;;;;;;5069666;28;20180;-76
2023/05/31 06:55:56;;;;;;;75.90;2.37;;;21.30;21.30;;;;;;5071244;28;20228;-76
2023/05/31 06:58:22;;;;;;;75.40;2.37;;;21.30;21.30;;;;;;5070352;28;20232;-78
2023/05/31 07:00:47;;;;;;;75.17;2.00;;;21.60;20.80;;;;;;5071201;28;20601;-76
2023/05/31 07:03:13;;;;;;;75.07;2.00;;;21.90;21.20;;;;;;5070947;28;20642;-76
2023/05/31 07:05:42;;;;;;;75.23;2.13;;;22.00;21.10;;;;;;5071406;28;20232;-77
2023/05/31 07:08:07;;;;;;;75.37;2.40;;;21.80;20.50;;;;;;5071458;28;20250;-76
2023/05/31 07:10:33;;;;;;;75.87;2.47;;;21.60;20.40;;;;;;5071345;28;20411;-76
2023/05/31 07:12:59;;;;;;;75.10;2.27;;;21.80;21.10;;;;;;5070733;28;20173;-77
2023/05/31 07:15:25;;;;;;;76.60;2.43;;;21.90;21.30;;;;;;5071200;28;20192;-76
2023/05/31 07:17:50;;;;;;;75.60;2.50;;;20.80;21.60;;;;;;5071161;28;20185;-77
2023/05/31 07:20:16;;;;;;;74.90;1.90;;;20.80;22.60;;;;;;5071351;28;20208;-78
2023/05/31 07:22:42;;;;;;;75.20;2.30;;;21.00;21.30;;;;;;5072048;28;20267;-76
2023/05/31 07:25:08;;;;;;;75.27;2.43;;;20.60;22.80;;;;;;5073646;28;20193;-76
2023/05/31 07:27:33;;;;;;;75.47;2.63;;;23.30;24.10;;;;;;5073250;28;20216;-77
2023/05/31 07:29:59;;;;;;;74.87;2.10;;;21.80;22.60;;;;;;5073644;28;20489;-77
2023/05/31 07:32:25;;;;;;;76.03;2.40;;;22.20;20.80;;;;;;5074850;28;20538;-78
2023/05/31 07:34:50;;;;;;;75.17;2.30;;;22.40;20.40;;;;;;5076002;28;20194;-79
2023/05/31 07:37:16;;;;;;;75.20;2.43;;;22.60;20.50;;;;;;5072765;28;20630;-78
2023/05/31 07:39:44;;;;;;;74.80;2.20;;;22.70;20.00;;;;;;5077692;28;20289;-76
2023/05/31 07:42:10;;;;;;;75.00;2.30;;;22.80;20.90;;;;;;5071424;28;20224;-77
2023/05/31 07:44:35;;;;;;;76.50;2.40;;;23.00;20.50;;;;;;5070801;28;20431;-76
2023/05/31 07:47:01;;;;;;;74.97;2.10;;;23.10;19.90;;;;;;5071219;28;20649;-78
2023/05/31 07:49:26;;;;;;;75.60;2.57;;;23.30;20.20;;;;;;5071494;28;20178;-76
2023/05/31 07:51:52;;;;;;;75.07;2.40;;;23.50;20.00;;;;;;5070979;28;20657;-76
2023/05/31 07:54:18;;;;;;;74.67;2.10;;;23.70;20.30;;;;;;5071866;28;20249;-77
2023/05/31 07:56:43;;;;;;;74.90;2.33;;;23.90;19.70;;;;;;5074419;28;20200;-78
2023/05/31 07:59:09;;;;;;;75.00;2.33;;;23.60;19.90;;;;;;5074637;28;20221;-77
2023/05/31 08:01:35;;;;;;;74.83;2.20;;;23.60;19.30;;;;;;5074708;28;20683;-77
2023/05/31 08:04:07;;;;;;;74.47;2.10;;;23.30;18.90;;;;;;5074240;28;20180;-76
2023/05/31 08:06:33;;;;;;;74.47;2.07;;;23.20;19.70;;;;;;5074340;28;20488;-78
2023/05/31 08:08:59;;;;;;;74.23;2.00;;;23.50;19.60;;;;;;5074367;28;20455;-77
2023/05/31 08:11:25;;;;;;;74.30;2.00;;;23.80;19.90;;;;;;5074459;28;20199;-76
2023/05/31 08:13:51;;;;;;;74.47;2.40;;;24.00;18.20;;;;;;5073633;28;20432;-76
2023/05/31 08:16:17;;;;;;;73.90;1.90;;;24.00;18.00;;;;;;5074187;28;20432;-76
2023/05/31 08:18:44;;;;;;;75.70;2.07;;;23.90;18.30;;;;;;5074421;28;20412;-76
2023/05/31 08:21:10;;;;;;;75.37;3.00;;;23.90;17.70;;;;;;5073395;28;20427;-77
2023/05/31 08:23:36;;;;;;;74.30;2.10;;;23.90;17.90;;;;;;5073552;28;20417;-76
2023/05/31 08:26:02;;;;;;;73.87;2.00;;;23.80;17.90;;;;;;5074107;28;20432;-77
2023/05/31 08:28:29;;;;;;;75.17;2.40;;;24.10;18.10;;;;;;5074243;28;20200;-78
2023/05/31 08:30:55;;;;;;;75.10;2.60;;;24.40;18.00;;;;;;5074529;28;20168;-77
2023/05/31 08:33:21;;;;;;;73.80;2.20;;;24.40;16.80;;;;;;5073958;28;20411;-76
2023/05/31 08:35:46;;;;;;;74.10;2.47;;;24.60;17.20;;;;;;5073969;28;20662;-77
2023/05/31 08:38:12;;;;;;;74.40;2.50;;;24.40;17.20;;;;;;5074109;28;20656;-77
2023/05/31 08:40:38;;;;;;;73.87;2.27;;;24.50;17.10;;;;;;5074053;28;20224;-76
2023/05/31 08:43:15;;;;;;;73.40;2.03;;;24.60;16.50;;;;;;5073569;28;20175;-77
2023/05/31 08:45:42;;;;;;;73.30;2.00;;;25.10;17.40;;;;;;5074009;28;20456;-77
2023/05/31 08:48:30;;;;;;;73.47;2.20;;;25.20;15.90;;;;;;5074082;28;20449;-77
2023/05/31 08:50:56;;;;;;;73.17;2.17;;;25.20;15.70;;;;;;5074426;28;20926;-77
2023/05/31 08:53:25;;;;;;;73.03;2.10;;;25.30;16.00;;;;;;5075044;28;20403;-77
2023/05/31 08:55:53;;;;;;;73.30;2.40;;;25.40;16.00;;;;;;5075123;28;20477;-77
2023/05/31 08:58:19;;;;;;;73.17;2.50;;;25.10;17.30;;;;;;5074110;28;20437;-77
2023/05/31 09:00:46;;;;;;;73.30;2.50;;;25.10;15.60;;;;;;5073376;28;20467;-77
2023/05/31 09:03:12;;;;;;;72.97;2.20;;;25.10;15.90;;;;;;5073259;28;20930;-77
2023/05/31 09:05:38;;;;;;;73.47;2.43;;;25.30;15.00;;;;;;5075091;28;20429;-77
2023/05/31 09:08:03;;;;;;;72.50;2.00;;;25.50;16.10;;;;;;5076401;28;20926;-77
2023/05/31 09:10:30;;;;;;;72.90;2.27;;;25.40;15.20;;;;;;5073175;28;20225;-77
2023/05/31 09:12:56;;;;;;;72.57;2.17;;;25.30;15.00;;;;;;5072923;28;20229;-77
2023/05/31 09:15:24;;;;;;;73.07;2.30;;;24.90;15.60;;;;;;5073330;28;20417;-77
2023/05/31 09:17:50;;;;;;;72.73;2.40;;;25.30;15.00;;;;;;5073101;28;20771;-77
2023/05/31 09:20:17;;;;;;;73.20;2.47;;;25.10;15.80;;;;;;5072906;28;20406;-77
2023/05/31 09:22:48;;;;;;;72.90;2.50;;;25.20;15.90;;;;;;5072464;28;20424;-77
2023/05/31 09:25:14;;;;;;;72.87;2.47;;;25.20;14.90;;;;;;5073138;28;20470;-77
2023/05/31 09:27:40;;;;;;;72.90;2.40;;;25.40;14.70;;;;;;5072962;28;20933;-76
2023/05/31 09:30:09;;;;;;;72.40;2.30;;;25.60;13.70;;;;;;5072980;28;20405;-77
2023/05/31 09:32:35;;;;;;;71.87;1.80;;;25.50;14.60;;;;;;5072358;28;20178;-77
2023/05/31 09:35:14;;;;;;;72.70;2.40;;;25.50;14.60;;;;;;5072440;28;20754;-77
2023/05/31 09:37:44;;;;;;;71.73;2.10;;;25.20;15.30;;;;;;5072669;28;20409;-77
2023/05/31 09:40:12;;;;;;;72.10;2.30;;;25.50;14.10;;;;;;5072796;28;20484;-77
2023/05/31 09:42:38;;;;;;;71.40;2.07;;;25.90;13.00;;;;;;5071949;28;20412;-77
2023/05/31 09:45:04;;;;;;;71.30;2.17;;;25.90;13.70;;;;;;5072496;28;20535;-79
2023/05/31 09:47:30;;;;;;;71.17;2.13;;;26.10;13.70;;;;;;5072539;28;20616;-77
2023/05/31 09:49:56;;;;;;;71.13;2.30;;;26.30;13.90;;;;;;5072419;28;20510;-77
2023/05/31 09:52:27;;;;;;;70.77;2.00;;;26.30;13.10;;;;;;5072546;28;20198;-77
2023/05/31 09:54:54;;;;;;;72.60;2.30;;;26.10;12.90;;;;;;5070257;28;20433;-77
2023/05/31 09:57:30;;;;;;;73.20;2.20;;;26.30;13.10;;;;;;5072467;28;20531;-79
2023/05/31 09:59:59;;;;;;;71.00;2.23;;;26.50;13.70;;;;;;5072212;28;20768;-78
2023/05/31 10:02:27;;;;;;;70.70;2.10;;;26.50;12.90;;;;;;5072387;28;20405;-77
2023/05/31 10:04:55;;;;;;;70.73;2.00;;;26.70;12.70;;;;;;5071617;28;20968;-77
2023/05/31 10:07:22;;;;;;;70.60;2.00;;;26.20;13.10;;;;;;5072088;28;20405;-77
2023/05/31 10:09:47;;;;;;;70.07;1.77;;;26.40;13.20;;;;;;5072319;28;20412;-76
2023/05/31 10:12:17;;;;;;;70.47;1.90;;;26.60;12.90;;;;;;5072423;28;20398;-77
2023/05/31 10:14:46;;;;;;;70.17;2.00;;;26.50;12.50;;;;;;5071231;28;20221;-78
2023/05/31 10:17:17;;;;;;;70.30;2.07;;;26.70;12.20;;;;;;5071402;28;20889;-77
2023/05/31 10:19:51;;;;;;;71.27;2.20;;;26.80;11.70;;;;;;5072026;28;20389;-78
2023/05/31 10:22:18;;;;;;;75.73;2.27;;;26.90;11.40;;;;;;5072086;28;20445;-78
2023/05/31 10:24:57;;;;;;;69.93;1.90;;;27.10;11.50;;;;;;5071327;28;20417;-79
2023/05/31 10:27:31;;;;;;;69.87;2.10;;;27.10;11.40;;;;;;5072167;28;20492;-77
2023/05/31 10:30:04;;;;;;;69.47;1.90;;;27.20;10.80;;;;;;5072381;28;20448;-78
2023/05/31 10:32:33;;;;;;;69.73;2.17;;;27.20;12.30;;;;;;5071876;28;20417;-79
2023/05/31 10:35:00;;;;;;;69.57;2.00;;;27.50;12.00;;;;;;5071891;28;20443;-77
2023/05/31 10:37:26;;;;;;;69.80;2.30;;;27.50;10.60;;;;;;5071927;28;20398;-77
2023/05/31 10:40:06;;;;;;;69.60;2.17;;;27.50;12.70;;;;;;5071801;28;20402;-77
2023/05/31 10:42:59;;;;;;;69.43;2.10;;;27.20;11.30;;;;;;5071645;28;20405;-77
2023/05/31 10:45:48;;;;;;;69.23;2.27;;;27.60;10.10;;;;;;5071769;28;20498;-77
2023/05/31 10:48:21;;;;;;;68.80;1.90;;;27.50;10.80;;;;;;5072276;28;20865;-77
2023/05/31 10:50:57;;;;;;;69.10;2.10;;;27.70;12.60;;;;;;5072649;28;20774;-77
2023/05/31 10:53:31;;;;;;;68.27;1.63;;;28.00;12.70;;;;;;5072040;28;20462;-77
2023/05/31 10:56:11;;;;;;;68.87;1.77;;;28.30;10.50;;;;;;5071915;28;20518;-77
2023/05/31 10:58:39;;;;;;;68.60;2.13;;;27.90;10.70;;;;;;5072000;28;20846;-77
2023/05/31 11:01:13;;;;;;;68.47;1.90;;;28.20;10.40;;;;;;5072131;28;20496;-77
2023/05/31 11:03:50;;;;;;;68.40;1.87;;;28.60;10.30;;;;;;5071676;28;20397;-77
2023/05/31 11:06:22;;;;;;;69.30;2.33;;;28.50;9.60;;;;;;5071637;28;20432;-78
2023/05/31 11:09:00;;;;;;;68.07;1.77;;;28.30;10.50;;;;;;5072323;28;20445;-77
2023/05/31 11:11:28;;;;;;;67.93;2.00;;;28.90;9.90;;;;;;5072678;28;20415;-78
2023/05/31 11:14:06;;;;;;;67.50;1.70;;;28.50;10.60;;;;;;5069767;28;20428;-77
2023/05/31 11:16:33;;;;;;;68.07;2.03;;;28.40;10.10;;;;;;5071298;28;20448;-77
2023/05/31 11:19:04;;;;;;;67.60;1.80;;;28.50;9.60;;;;;;5071304;28;20441;-77
2023/05/31 11:21:48;;;;;;;67.60;2.00;;;29.20;12.80;;;;;;5071726;28;20409;-77
2023/05/31 11:24:29;;;;;;;67.27;1.80;;;29.50;12.00;;;;;;5070788;28;20780;-77
2023/05/31 11:26:57;;;;;;;67.77;2.20;;;29.60;10.00;;;;;;5071319;28;20409;-77
2023/05/31 11:29:23;;;;;;;67.37;1.80;;;29.90;8.00;;;;;;5072952;28;20838;-78
2023/05/31 11:31:54;;;;;;;68.10;1.90;;;31.00;7.80;;;;;;5075079;28;20413;-78
2023/05/31 11:34:35;;;;;;;67.57;1.80;;;31.90;5.80;;;;;;5074612;28;20300;-77
2023/05/31 11:37:05;;;;;;;67.77;1.80;;;32.20;6.80;;;;;;5075103;28;20405;-78
2023/05/31 11:39:31;;;;;;;67.77;1.80;;;32.90;5.40;;;;;;5075206;28;20420;-78
2023/05/31 11:41:57;;;;;;;67.70;1.93;;;33.40;4.90;;;;;;5074717;28;20916;-80
2023/05/31 11:44:30;;;;;;;66.97;1.80;;;34.00;4.50;;;;;;5074068;28;20187;-78
2023/05/31 11:47:01;;;;;;;66.47;1.67;;;33.80;6.90;;;;;;5074878;28;20480;-78
2023/05/31 11:49:27;;;;;;;66.80;1.70;;;34.00;4.50;;;;;;5074542;28;20463;-80
2023/05/31 11:51:56;;;;;;;66.57;1.90;;;34.40;2.90;;;;;;5074780;28;20409;-79
2023/05/31 11:54:32;;;;;;;75.20;1.90;;;34.10;3.50;;;;;;5074190;28;20935;-78
2023/05/31 11:57:02;;;;;;;65.27;1.70;;;34.30;3.50;;;;;;5074994;28;20743;-78
2023/05/31 11:59:32;;;;;;;66.27;1.50;;;34.70;2.40;;;;;;5074784;28;20795;-78
2023/05/31 12:01:59;;;;;;;65.00;1.90;;;35.10;3.20;;;;;;5074312;28;20488;-78
2023/05/31 12:04:38;;;;;;;64.60;1.80;;;35.70;1.90;;;;;;5074045;28;20435;-78
2023/05/31 12:07:06;;;;;;;63.97;1.70;;;36.30;2.00;;;;;;5074356;28;20397;-78
2023/05/31 12:09:35;;;;;;;63.57;1.67;;;36.00;2.20;;;;;;5074336;28;20456;-78
2023/05/31 12:12:03;;;;;;;62.00;1.50;;;34.90;2.90;;;;;;5074360;28;20401;-78
2023/05/31 12:14:29;;;;;;;61.90;1.40;;;35.40;2.10;;;;;;5073928;28;20409;-79
2023/05/31 12:16:55;;;;;;;61.23;1.40;;;36.00;1.90;;;;;;5074013;28;20398;-78
2023/05/31 12:19:21;;;;;;;61.83;1.70;;;36.50;1.00;;;;;;5074250;28;20405;-78
2023/05/31 12:21:48;;;;;;;60.87;1.77;;;36.20;1.10;;;;;;5074165;28;20292;-78
2023/05/31 12:24:15;;;;;;;60.80;1.90;;;36.50;1.10;;;;;;5073519;28;20401;-78
2023/05/31 12:26:45;;;;;;;60.20;1.70;;;36.90;1.00;;;;;;5073998;28;20578;-78
2023/05/31 12:29:15;;;;;;;59.50;1.47;;;36.60;1.00;;;;;;5073926;28;20787;-78
2023/05/31 12:31:41;;;;;;;59.10;1.40;;;36.70;1.00;;;;;;5073994;28;20614;-79
2023/05/31 12:34:11;;;;;;;58.87;1.47;;;36.80;1.00;;;;;;5073442;28;20405;-78
2023/05/31 12:36:47;;;;;;;58.87;1.60;;;37.00;1.00;;;;;;5073549;28;20456;-78
2023/05/31 12:39:20;;;;;;;58.40;1.60;;;37.40;1.00;;;;;;5073973;28;20401;-78
2023/05/31 12:41:47;;;;;;;59.20;1.90;;;37.30;1.00;;;;;;5072740;28;20393;-78